Time;durP1;ratioP1;P1;durP2;ratioP2;P2;SDS_P1;SDS_P2;PMS_P1;PMS_P2;Temp;Humidity;BMP_temperature;BMP_pressure;BME280_temperature;BME280_humidity;BME280_pressure;Samples;Min_cycle;Max_cycle;Signal;HPM_P1;HPM_P2
2024/02/18 00:02:00;;;;;;;0.30;0.30;;;;;;;;;;5013950;28;20469;-84
2024/02/18 00:04:26;;;;;;;1.85;0.17;;;;;;;;;;5030615;28;20042;-84
2024/02/18 00:06:52;;;;;;;0.40;0.40;;;;;;;;;;5013839;28;20100;-84
2024/02/18 00:09:18;;;;;;;0.20;0.20;;;;;;;;;;5014109;28;20045;-85
2024/02/18 00:11:44;;;;;;;0.35;0.32;;;;;;;;;;5013925;28;20045;-85
2024/02/18 00:14:10;;;;;;;0.13;0.13;;;;;;;;;;5013819;28;20477;-84
2024/02/18 00:16:36;;;;;;;0.10;0.10;;;;;;;;;;5013957;28;20029;-84
2024/02/18 00:19:03;;;;;;;0.30;0.30;;;;;;;;;;5013636;28;20041;-84
2024/02/18 00:21:29;;;;;;;0.57;0.30;;;;;;;;;;5013526;28;20038;-84
2024/02/18 00:23:58;;;;;;;0.10;0.10;;;;;;;;;;5013524;28;20129;-84
2024/02/18 00:26:24;;;;;;;0.82;0.60;;;;;;;;;;5030011;28;20417;-84
2024/02/18 00:28:50;;;;;;;0.43;0.40;;;;;;;;;;5013776;28;20382;-84
2024/02/18 00:31:16;;;;;;;0.57;0.47;;;;;;;;;;5030036;28;20108;-84
2024/02/18 00:33:43;;;;;;;0.38;0.38;;;;;;;;;;5013744;28;20038;-84
2024/02/18 00:36:09;;;;;;;0.98;0.45;;;;;;;;;;5013342;28;20096;-84
2024/02/18 00:38:35;;;;;;;0.45;0.45;;;;;;;;;;5013612;28;20800;-84
2024/02/18 00:41:03;;;;;;;0.20;0.20;;;;;;;;;;5013041;28;20505;-84
2024/02/18 00:43:29;;;;;;;0.10;0.10;;;;;;;;;;5030102;28;20037;-84
2024/02/18 00:45:55;;;;;;;0.10;0.10;;;;;;;;;;5013319;28;20386;-85
2024/02/18 00:48:21;;;;;;;0.47;0.47;;;;;;;;;;5013203;28;20052;-85
2024/02/18 00:50:47;;;;;;;0.10;0.10;;;;;;;;;;5012986;28;20046;-85
2024/02/18 00:53:13;;;;;;;0.20;0.20;;;;;;;;;;5013278;28;20049;-85
2024/02/18 00:55:43;;;;;;;0.82;0.28;;;;;;;;;;5012841;28;20145;-85
2024/02/18 00:58:12;;;;;;;0.98;0.32;;;;;;;;;;5013021;28;20057;-85
2024/02/18 01:00:39;;;;;;;0.40;0.40;;;;;;;;;;5012801;28;20092;-84
2024/02/18 01:03:05;;;;;;;0.40;0.40;;;;;;;;;;5012838;28;20073;-84
2024/02/18 01:05:31;;;;;;;0.40;0.40;;;;;;;;;;5013045;28;20482;-84
2024/02/18 01:07:57;;;;;;;5.05;0.68;;;;;;;;;;5012948;28;20121;-85
2024/02/18 01:10:23;;;;;;;0.20;0.20;;;;;;;;;;5012694;28;20509;-84
2024/02/18 01:12:49;;;;;;;0.77;0.77;;;;;;;;;;5012858;28;20042;-85
2024/02/18 01:15:16;;;;;;;0.60;0.60;;;;;;;;;;5012798;28;20046;-84
2024/02/18 01:17:42;;;;;;;0.20;0.20;;;;;;;;;;5013027;28;20060;-84
2024/02/18 01:20:08;;;;;;;0.28;0.28;;;;;;;;;;5028940;28;20095;-85
2024/02/18 01:22:35;;;;;;;0.10;0.10;;;;;;;;;;5012345;28;20049;-84
2024/02/18 01:25:01;;;;;;;0.43;0.40;;;;;;;;;;5012434;28;20168;-85
2024/02/18 01:27:27;;;;;;;0.73;0.30;;;;;;;;;;5012680;28;20204;-84
2024/02/18 01:29:53;;;;;;;0.32;0.32;;;;;;;;;;5012323;28;20049;-85
2024/02/18 01:32:19;;;;;;;0.55;0.55;;;;;;;;;;5012557;28;20153;-84
2024/02/18 01:34:45;;;;;;;0.52;0.52;;;;;;;;;;5012645;28;20064;-85
2024/02/18 01:37:11;;;;;;;0.65;0.30;;;;;;;;;;5012123;28;20045;-85
2024/02/18 01:39:37;;;;;;;0.25;0.25;;;;;;;;;;5012082;28;20120;-84
2024/02/18 01:42:03;;;;;;;0.30;0.30;;;;;;;;;;5012127;28;20120;-85
2024/02/18 01:44:30;;;;;;;0.47;0.47;;;;;;;;;;5012106;28;20070;-85
2024/02/18 01:46:56;;;;;;;0.10;0.10;;;;;;;;;;5012368;28;20053;-85
2024/02/18 01:49:22;;;;;;;0.45;0.45;;;;;;;;;;5012082;28;20060;-83
2024/02/18 01:51:48;;;;;;;0.20;0.20;;;;;;;;;;5012039;28;20069;-83
2024/02/18 01:54:14;;;;;;;0.35;0.30;;;;;;;;;;5012943;28;20042;-84
2024/02/18 01:56:41;;;;;;;3.13;0.43;;;;;;;;;;4998930;28;20046;-84
2024/02/18 01:59:07;;;;;;;0.43;0.43;;;;;;;;;;5014995;28;20045;-84
2024/02/18 02:01:33;;;;;;;0.20;0.20;;;;;;;;;;4998817;28;20041;-84
2024/02/18 02:03:59;;;;;;;0.20;0.20;;;;;;;;;;5015090;28;20147;-83
2024/02/18 02:06:25;;;;;;;0.10;0.10;;;;;;;;;;4998720;28;20047;-83
2024/02/18 02:08:53;;;;;;;0.30;0.30;;;;;;;;;;4998720;28;20080;-84
2024/02/18 02:11:19;;;;;;;0.20;0.20;;;;;;;;;;4999179;28;20266;-83
2024/02/18 02:13:45;;;;;;;0.30;0.30;;;;;;;;;;4998998;28;20048;-84
2024/02/18 02:16:11;;;;;;;0.75;0.75;;;;;;;;;;4998532;28;20052;-84
2024/02/18 02:18:37;;;;;;;0.15;0.15;;;;;;;;;;4998501;28;20077;-84
2024/02/18 02:21:03;;;;;;;0.30;0.30;;;;;;;;;;4998291;28;20046;-84
2024/02/18 02:23:31;;;;;;;0.50;0.50;;;;;;;;;;4998520;28;20042;-84
2024/02/18 02:25:57;;;;;;;0.20;0.20;;;;;;;;;;4998533;28;20048;-84
2024/02/18 02:28:24;;;;;;;0.10;0.10;;;;;;;;;;4998826;28;20038;-83
2024/02/18 02:30:50;;;;;;;0.30;0.30;;;;;;;;;;5014776;28;20041;-84
2024/02/18 02:33:21;;;;;;;0.55;0.30;;;;;;;;;;4998409;28;20481;-84
2024/02/18 02:35:48;;;;;;;0.45;0.25;;;;;;;;;;4998453;28;20041;-84
2024/02/18 02:38:14;;;;;;;0.35;0.35;;;;;;;;;;4998349;28;20099;-84
2024/02/18 02:40:40;;;;;;;0.10;0.10;;;;;;;;;;4998309;28;20076;-85
2024/02/18 02:43:06;;;;;;;0.10;0.10;;;;;;;;;;4998540;28;20487;-84
2024/02/18 02:45:33;;;;;;;0.52;0.35;;;;;;;;;;4998408;28;20042;-85
2024/02/18 02:47:59;;;;;;;0.10;0.10;;;;;;;;;;4998138;28;20481;-84
2024/02/18 02:50:25;;;;;;;0.35;0.35;;;;;;;;;;4998032;28;20052;-85
2024/02/18 02:52:51;;;;;;;0.10;0.10;;;;;;;;;;4998280;28;20052;-85
2024/02/18 02:55:17;;;;;;;0.28;0.28;;;;;;;;;;4997907;28;20053;-85
2024/02/18 02:57:43;;;;;;;0.75;0.70;;;;;;;;;;4998091;28;20528;-85
2024/02/18 03:00:10;;;;;;;0.20;0.20;;;;;;;;;;4997971;28;20064;-84
2024/02/18 03:02:39;;;;;;;0.20;0.20;;;;;;;;;;4997978;28;20080;-84
2024/02/18 03:05:05;;;;;;;0.10;0.10;;;;;;;;;;4998057;28;20073;-84
2024/02/18 03:07:31;;;;;;;0.20;0.20;;;;;;;;;;4998009;28;20493;-84
2024/02/18 03:09:57;;;;;;;0.10;0.10;;;;;;;;;;4998103;28;20037;-84
2024/02/18 03:12:24;;;;;;;0.20;0.20;;;;;;;;;;5002059;28;20042;-85
2024/02/18 03:14:50;;;;;;;0.22;0.22;;;;;;;;;;5002093;28;20096;-84
2024/02/18 03:17:16;;;;;;;0.22;0.22;;;;;;;;;;5002293;28;20045;-84
2024/02/18 03:19:42;;;;;;;0.20;0.20;;;;;;;;;;5001614;28;20108;-84
2024/02/18 03:22:09;;;;;;;0.20;0.20;;;;;;;;;;5018009;28;20037;-84
2024/02/18 03:24:35;;;;;;;0.20;0.20;;;;;;;;;;5018036;28;20045;-84
2024/02/18 03:27:01;;;;;;;0.38;0.30;;;;;;;;;;5001703;28;20037;-84
2024/02/18 03:29:27;;;;;;;0.20;0.20;;;;;;;;;;5018094;28;20205;-85
2024/02/18 03:31:53;;;;;;;0.20;0.20;;;;;;;;;;5001859;28;20049;-85
2024/02/18 03:34:19;;;;;;;0.20;0.20;;;;;;;;;;5035819;28;20121;-84
2024/02/18 03:36:45;;;;;;;0.20;0.20;;;;;;;;;;5001558;28;20044;-83
2024/02/18 03:39:11;;;;;;;0.28;0.28;;;;;;;;;;5018313;28;20048;-91
2024/02/18 03:41:37;;;;;;;0.10;0.10;;;;;;;;;;5002288;28;20396;-85
2024/02/18 03:44:03;;;;;;;0.35;0.32;;;;;;;;;;5001561;28;20048;-85
2024/02/18 03:46:29;;;;;;;0.10;0.10;;;;;;;;;;5001600;28;20389;-84
2024/02/18 03:48:55;;;;;;;0.10;0.10;;;;;;;;;;5001667;28;20033;-85
2024/02/18 03:51:21;;;;;;;0.80;0.80;;;;;;;;;;5001520;28;20103;-85
2024/02/18 03:53:48;;;;;;;0.20;0.20;;;;;;;;;;5001613;28;20037;-85
2024/02/18 03:56:14;;;;;;;0.28;0.28;;;;;;;;;;4997787;28;20120;-85
2024/02/18 03:58:40;;;;;;;0.20;0.20;;;;;;;;;;5014491;28;20464;-85
2024/02/18 04:01:06;;;;;;;0.10;0.10;;;;;;;;;;5013916;28;20049;-84
2024/02/18 04:03:32;;;;;;;0.10;0.10;;;;;;;;;;5014045;28;20042;-85
2024/02/18 04:05:58;;;;;;;1.65;0.40;;;;;;;;;;5014483;28;20470;-85
2024/02/18 04:08:24;;;;;;;0.22;0.20;;;;;;;;;;5014355;28;20076;-85
2024/02/18 04:10:51;;;;;;;0.15;0.15;;;;;;;;;;5013838;28;20128;-84
2024/02/18 04:13:17;;;;;;;0.10;0.10;;;;;;;;;;5013768;28;20038;-85
2024/02/18 04:15:43;;;;;;;0.20;0.20;;;;;;;;;;5013665;28;20054;-85
2024/02/18 04:18:09;;;;;;;0.10;0.10;;;;;;;;;;5013739;28;20042;-84
2024/02/18 04:20:35;;;;;;;0.20;0.20;;;;;;;;;;5013564;28;20053;-84
2024/02/18 04:23:02;;;;;;;0.20;0.20;;;;;;;;;;5013246;28;20096;-85
2024/02/18 04:25:28;;;;;;;0.13;0.13;;;;;;;;;;5013824;28;20096;-85
2024/02/18 04:27:54;;;;;;;0.88;0.45;;;;;;;;;;5013762;28;20041;-85
2024/02/18 04:30:20;;;;;;;0.10;0.10;;;;;;;;;;5029848;28;20494;-84
2024/02/18 04:32:46;;;;;;;0.25;0.25;;;;;;;;;;5013518;28;20092;-85
2024/02/18 04:35:12;;;;;;;0.10;0.10;;;;;;;;;;5013364;28;20045;-85
2024/02/18 04:37:38;;;;;;;0.10;0.10;;;;;;;;;;5013255;28;20038;-85
2024/02/18 04:40:06;;;;;;;0.10;0.10;;;;;;;;;;5013146;28;20038;-85
2024/02/18 04:42:32;;;;;;;0.10;0.10;;;;;;;;;;5013322;28;20397;-84
2024/02/18 04:44:58;;;;;;;0.30;0.30;;;;;;;;;;5013311;28;20038;-84
2024/02/18 04:47:25;;;;;;;0.10;0.10;;;;;;;;;;5013212;28;20042;-84
2024/02/18 04:49:51;;;;;;;0.10;0.10;;;;;;;;;;5013183;28;20401;-84
2024/02/18 04:52:18;;;;;;;0.20;0.20;;;;;;;;;;5012931;28;20042;-85
2024/02/18 04:54:44;;;;;;;0.10;0.10;;;;;;;;;;5012902;28;20061;-85
2024/02/18 04:57:10;;;;;;;0.45;0.45;;;;;;;;;;5012907;28;20061;-84
2024/02/18 04:59:36;;;;;;;0.20;0.20;;;;;;;;;;5012899;28;20046;-85
2024/02/18 05:02:02;;;;;;;0.80;0.68;;;;;;;;;;5012775;28;20052;-85
2024/02/18 05:04:31;;;;;;;0.10;0.10;;;;;;;;;;5013268;28;20152;-85
2024/02/18 05:06:57;;;;;;;0.20;0.20;;;;;;;;;;5012942;28;20038;-86
2024/02/18 05:09:23;;;;;;;0.20;0.20;;;;;;;;;;5012733;28;20034;-85
2024/02/18 05:11:49;;;;;;;0.63;0.47;;;;;;;;;;5012693;28;20080;-84
2024/02/18 05:14:15;;;;;;;0.10;0.10;;;;;;;;;;5012654;28;20084;-84
2024/02/18 05:16:42;;;;;;;0.10;0.10;;;;;;;;;;5012597;28;20096;-84
2024/02/18 05:19:08;;;;;;;0.20;0.20;;;;;;;;;;5012648;28;20129;-84
2024/02/18 05:21:34;;;;;;;0.10;0.10;;;;;;;;;;5012540;28;20444;-85
2024/02/18 05:24:01;;;;;;;0.17;0.17;;;;;;;;;;5012938;28;20486;-82
2024/02/18 05:26:29;;;;;;;0.20;0.20;;;;;;;;;;5012582;28;20038;-85
2024/02/18 05:28:55;;;;;;;0.15;0.15;;;;;;;;;;5012521;28;20045;-85
2024/02/18 05:31:22;;;;;;;0.10;0.10;;;;;;;;;;5012523;28;20046;-85
2024/02/18 05:33:49;;;;;;;0.20;0.20;;;;;;;;;;5011824;28;20397;-85
2024/02/18 05:36:15;;;;;;;0.17;0.17;;;;;;;;;;5012337;28;20042;-85
2024/02/18 05:38:41;;;;;;;0.13;0.13;;;;;;;;;;5012333;28;20212;-85
2024/02/18 05:41:07;;;;;;;0.10;0.10;;;;;;;;;;5012072;28;20053;-85
2024/02/18 05:43:33;;;;;;;0.10;0.10;;;;;;;;;;5012374;28;20045;-85
2024/02/18 05:45:59;;;;;;;0.20;0.20;;;;;;;;;;5012494;28;20070;-83
2024/02/18 05:48:25;;;;;;;0.10;0.10;;;;;;;;;;5012422;28;20042;-85
2024/02/18 05:50:52;;;;;;;0.10;0.10;;;;;;;;;;5011956;28;20056;-84
2024/02/18 05:53:18;;;;;;;0.10;0.10;;;;;;;;;;5011977;28;20104;-84
2024/02/18 05:55:44;;;;;;;0.15;0.15;;;;;;;;;;5011657;28;20054;-85
2024/02/18 05:58:12;;;;;;;0.10;0.10;;;;;;;;;;5011878;28;20052;-86
2024/02/18 06:00:38;;;;;;;0.10;0.10;;;;;;;;;;5011662;28;20052;-85
2024/02/18 06:03:05;;;;;;;0.10;0.10;;;;;;;;;;5012127;28;20107;-85
2024/02/18 06:05:31;;;;;;;0.17;0.17;;;;;;;;;;5012120;28;20038;-85
2024/02/18 06:07:57;;;;;;;0.10;0.10;;;;;;;;;;5011665;28;20037;-85
2024/02/18 06:10:24;;;;;;;0.10;0.10;;;;;;;;;;5011812;28;20418;-85
2024/02/18 06:12:50;;;;;;;0.20;0.20;;;;;;;;;;5011884;28;20056;-85
2024/02/18 06:15:16;;;;;;;0.10;0.10;;;;;;;;;;5011850;28;20378;-85
2024/02/18 06:17:42;;;;;;;0.20;0.20;;;;;;;;;;5011806;28;20163;-85
2024/02/18 06:20:12;;;;;;;0.10;0.10;;;;;;;;;;5011369;28;20489;-85
2024/02/18 06:22:38;;;;;;;0.10;0.10;;;;;;;;;;5011455;28;20038;-85
2024/02/18 06:25:05;;;;;;;0.10;0.10;;;;;;;;;;5011593;28;20321;-84
2024/02/18 06:27:31;;;;;;;3.30;0.43;;;;;;;;;;5011950;28;20069;-84
2024/02/18 06:29:58;;;;;;;0.10;0.10;;;;;;;;;;5011321;28;20073;-85
2024/02/18 06:32:25;;;;;;;0.30;0.30;;;;;;;;;;5011350;28;20038;-84
2024/02/18 06:34:51;;;;;;;0.30;0.30;;;;;;;;;;5011337;28;20045;-84
2024/02/18 06:37:17;;;;;;;0.17;0.17;;;;;;;;;;5011204;28;20474;-84
2024/02/18 06:39:43;;;;;;;0.10;0.10;;;;;;;;;;5011129;28;20057;-84
2024/02/18 06:42:09;;;;;;;0.20;0.20;;;;;;;;;;5011205;28;20037;-84
2024/02/18 06:44:35;;;;;;;0.10;0.10;;;;;;;;;;5011147;28;20038;-85
2024/02/18 06:47:01;;;;;;;0.15;0.15;;;;;;;;;;5011270;28;20406;-85
2024/02/18 06:49:27;;;;;;;0.10;0.10;;;;;;;;;;5011087;28;20033;-83
2024/02/18 06:51:53;;;;;;;0.30;0.20;;;;;;;;;;5010853;28;20478;-84
2024/02/18 06:54:19;;;;;;;0.10;0.10;;;;;;;;;;5012563;28;20041;-84
2024/02/18 06:56:45;;;;;;;0.10;0.10;;;;;;;;;;4997970;28;20119;-85
2024/02/18 06:59:13;;;;;;;0.20;0.20;;;;;;;;;;5014299;28;20041;-83
2024/02/18 07:01:39;;;;;;;0.10;0.10;;;;;;;;;;4998118;28;20413;-85
2024/02/18 07:04:06;;;;;;;0.10;0.10;;;;;;;;;;4997662;28;20053;-85
2024/02/18 07:06:32;;;;;;;0.30;0.30;;;;;;;;;;5014136;28;20049;-85
2024/02/18 07:08:58;;;;;;;0.20;0.20;;;;;;;;;;4998191;28;20029;-86
2024/02/18 07:11:25;;;;;;;0.10;0.10;;;;;;;;;;4997928;28;20083;-86
2024/02/18 07:13:55;;;;;;;0.20;0.20;;;;;;;;;;5014070;28;20045;-85
2024/02/18 07:16:24;;;;;;;0.10;0.10;;;;;;;;;;5014081;28;20038;-87
2024/02/18 07:18:50;;;;;;;0.10;0.10;;;;;;;;;;4997996;28;20084;-86
2024/02/18 07:21:16;;;;;;;0.20;0.20;;;;;;;;;;4997855;28;20489;-86
2024/02/18 07:23:42;;;;;;;0.17;0.17;;;;;;;;;;4997808;28;20087;-86
2024/02/18 07:26:13;;;;;;;0.10;0.10;;;;;;;;;;4998259;28;20041;-87
2024/02/18 07:28:40;;;;;;;0.10;0.10;;;;;;;;;;4998056;28;20065;-86
2024/02/18 07:31:06;;;;;;;0.10;0.10;;;;;;;;;;4998033;28;20048;-86
2024/02/18 07:33:32;;;;;;;0.20;0.20;;;;;;;;;;4997980;28;20060;-85
2024/02/18 07:35:58;;;;;;;1.65;1.55;;;;;;;;;;4997927;28;20045;-86
2024/02/18 07:38:26;;;;;;;0.10;0.10;;;;;;;;;;4997696;28;20045;-86
2024/02/18 07:40:53;;;;;;;0.10;0.10;;;;;;;;;;4997772;28;20501;-85
2024/02/18 07:43:19;;;;;;;0.20;0.20;;;;;;;;;;4997720;28;20046;-86
2024/02/18 07:45:48;;;;;;;0.10;0.10;;;;;;;;;;4997736;28;20033;-89
2024/02/18 07:48:14;;;;;;;0.10;0.10;;;;;;;;;;4998304;28;20037;-90
2024/02/18 07:50:41;;;;;;;0.10;0.10;;;;;;;;;;4998394;28;20088;-87
2024/02/18 07:53:07;;;;;;;0.10;0.10;;;;;;;;;;4997826;28;20041;-87
2024/02/18 07:55:34;;;;;;;0.32;0.32;;;;;;;;;;4994063;28;20054;-87
2024/02/18 07:58:01;;;;;;;0.10;0.10;;;;;;;;;;5013606;28;20104;-84
2024/02/18 08:00:27;;;;;;;0.20;0.20;;;;;;;;;;5014034;28;20108;-86
2024/02/18 08:02:53;;;;;;;0.20;0.20;;;;;;;;;;5014576;28;20460;-84
2024/02/18 08:05:19;;;;;;;0.40;0.40;;;;;;;;;;5014404;28;20386;-86
2024/02/18 08:07:45;;;;;;;0.20;0.20;;;;;;;;;;5013893;28;20541;-85
2024/02/18 08:10:12;;;;;;;0.20;0.20;;;;;;;;;;5014214;28;20084;-89
2024/02/18 08:12:38;;;;;;;0.10;0.10;;;;;;;;;;5014066;28;20052;-87
2024/02/18 08:15:04;;;;;;;0.10;0.10;;;;;;;;;;5013657;28;20042;-85
2024/02/18 08:17:30;;;;;;;0.10;0.10;;;;;;;;;;5013683;28;20431;-85
2024/02/18 08:19:56;;;;;;;0.10;0.10;;;;;;;;;;5013528;28;20042;-86
2024/02/18 08:22:24;;;;;;;0.10;0.10;;;;;;;;;;5013688;28;20167;-86
2024/02/18 08:24:50;;;;;;;0.77;0.30;;;;;;;;;;5013861;28;20045;-86
2024/02/18 08:27:16;;;;;;;0.30;0.30;;;;;;;;;;5013902;28;20127;-85
2024/02/18 08:29:42;;;;;;;0.30;0.30;;;;;;;;;;5013587;28;20053;-89
2024/02/18 08:32:08;;;;;;;0.30;0.30;;;;;;;;;;5013712;28;20049;-87
2024/02/18 08:34:34;;;;;;;0.20;0.20;;;;;;;;;;5013701;28;20045;-87
2024/02/18 08:37:01;;;;;;;0.10;0.10;;;;;;;;;;5013659;28;20389;-86
2024/02/18 08:39:27;;;;;;;0.10;0.10;;;;;;;;;;5013312;28;20095;-87
2024/02/18 08:41:53;;;;;;;0.20;0.20;;;;;;;;;;5013501;28;20040;-85
2024/02/18 08:44:19;;;;;;;0.20;0.20;;;;;;;;;;5013170;28;20050;-85
2024/02/18 08:46:49;;;;;;;0.10;0.10;;;;;;;;;;5013677;28;20066;-86
2024/02/18 08:49:15;;;;;;;0.13;0.13;;;;;;;;;;5014045;28;20198;-86
2024/02/18 08:51:41;;;;;;;0.20;0.20;;;;;;;;;;5013305;28;20237;-86
2024/02/18 08:54:07;;;;;;;0.20;0.20;;;;;;;;;;5013363;28;20120;-85
2024/02/18 08:56:33;;;;;;;0.20;0.20;;;;;;;;;;4996881;28;20398;-85
2024/02/18 08:58:59;;;;;;;0.10;0.10;;;;;;;;;;4996694;28;20125;-84
2024/02/18 09:01:27;;;;;;;0.20;0.20;;;;;;;;;;4996683;28;20474;-84
2024/02/18 09:03:53;;;;;;;0.20;0.20;;;;;;;;;;4996813;28;20081;-84
2024/02/18 09:06:19;;;;;;;0.20;0.20;;;;;;;;;;4997263;28;20405;-84
2024/02/18 09:08:45;;;;;;;0.20;0.20;;;;;;;;;;4995976;28;20045;-84
2024/02/18 09:11:11;;;;;;;0.10;0.10;;;;;;;;;;4996674;28;20045;-84
2024/02/18 09:13:37;;;;;;;0.55;0.50;;;;;;;;;;4996828;28;20049;-83
2024/02/18 09:16:04;;;;;;;0.10;0.10;;;;;;;;;;4996490;28;20578;-84
2024/02/18 09:18:31;;;;;;;0.30;0.30;;;;;;;;;;5012556;28;20042;-85
2024/02/18 09:20:57;;;;;;;0.10;0.10;;;;;;;;;;4996139;28;20489;-84
2024/02/18 09:23:23;;;;;;;0.10;0.10;;;;;;;;;;4996217;28;20500;-85
2024/02/18 09:25:49;;;;;;;0.10;0.10;;;;;;;;;;4996110;28;20038;-84
2024/02/18 09:28:15;;;;;;;0.20;0.20;;;;;;;;;;4996296;28;20512;-84
2024/02/18 09:30:41;;;;;;;0.10;0.10;;;;;;;;;;5011705;28;20052;-83
2024/02/18 09:33:07;;;;;;;0.15;0.15;;;;;;;;;;4996131;28;20045;-84
2024/02/18 09:35:33;;;;;;;0.20;0.20;;;;;;;;;;4994912;28;20531;-84
2024/02/18 09:37:59;;;;;;;0.20;0.20;;;;;;;;;;4993810;28;20041;-84
2024/02/18 09:40:26;;;;;;;0.68;0.68;;;;;;;;;;4995444;28;20089;-84
2024/02/18 09:42:52;;;;;;;0.10;0.10;;;;;;;;;;4994567;28;20045;-85
2024/02/18 09:45:19;;;;;;;0.10;0.10;;;;;;;;;;4996035;28;20498;-83
2024/02/18 09:47:48;;;;;;;0.28;0.28;;;;;;;;;;4995456;28;20092;-84
2024/02/18 09:50:15;;;;;;;0.10;0.10;;;;;;;;;;4996245;28;20224;-84
2024/02/18 09:52:41;;;;;;;0.10;0.10;;;;;;;;;;4995929;28;20077;-85
2024/02/18 09:55:11;;;;;;;0.10;0.10;;;;;;;;;;5003171;28;20096;-84
2024/02/18 09:57:40;;;;;;;0.10;0.10;;;;;;;;;;5014784;28;20045;-85
2024/02/18 10:00:09;;;;;;;0.10;0.10;;;;;;;;;;5014688;28;20038;-84
2024/02/18 10:02:35;;;;;;;0.10;0.10;;;;;;;;;;5014892;28;20264;-84
2024/02/18 10:05:02;;;;;;;0.10;0.10;;;;;;;;;;5014928;28;20037;-84
2024/02/18 10:07:28;;;;;;;0.10;0.10;;;;;;;;;;5014758;28;20033;-86
2024/02/18 10:09:57;;;;;;;0.10;0.10;;;;;;;;;;5014618;28;20524;-84
2024/02/18 10:12:23;;;;;;;0.20;0.20;;;;;;;;;;5013681;28;20046;-84
2024/02/18 10:15:01;;;;;;;0.10;0.10;;;;;;;;;;4998003;28;20397;-83
2024/02/18 10:17:28;;;;;;;0.20;0.20;;;;;;;;;;5014557;28;20049;-84
2024/02/18 10:19:54;;;;;;;0.10;0.10;;;;;;;;;;4997589;28;20193;-83
2024/02/18 10:22:27;;;;;;;0.10;0.10;;;;;;;;;;5014499;28;20087;-83
2024/02/18 10:24:53;;;;;;;;;;;;;;;;;;5014930;28;20125;-84
2024/02/18 10:27:19;;;;;;;0.20;0.20;;;;;;;;;;5014801;28;19983;-83
2024/02/18 10:29:47;;;;;;;0.10;0.10;;;;;;;;;;5014749;28;20029;-83
2024/02/18 10:32:13;;;;;;;0.10;0.10;;;;;;;;;;5015074;28;20099;-86
2024/02/18 10:34:40;;;;;;;0.10;0.10;;;;;;;;;;5014423;28;20037;-88
2024/02/18 10:37:08;;;;;;;0.10;0.10;;;;;;;;;;5014767;28;20049;-87
2024/02/18 10:39:34;;;;;;;0.10;0.10;;;;;;;;;;5014173;28;20041;-87
2024/02/18 10:42:03;;;;;;;0.10;0.10;;;;;;;;;;5014338;28;20048;-83
2024/02/18 10:44:29;;;;;;;0.10;0.10;;;;;;;;;;5014158;28;20547;-84
2024/02/18 10:46:55;;;;;;;0.17;0.17;;;;;;;;;;5014152;28;20037;-85
2024/02/18 10:49:28;;;;;;;0.10;0.10;;;;;;;;;;5014371;28;20064;-86
2024/02/18 10:51:58;;;;;;;0.10;0.10;;;;;;;;;;5014733;28;20497;-86
2024/02/18 10:54:40;;;;;;;0.20;0.20;;;;;;;;;;5014228;28;20392;-86
2024/02/18 10:57:06;;;;;;;0.10;0.10;;;;;;;;;;5014458;28;20354;-86
2024/02/18 10:59:41;;;;;;;0.30;0.30;;;;;;;;;;5014065;28;20045;-86
2024/02/18 11:02:12;;;;;;;0.10;0.10;;;;;;;;;;4997918;28;20045;-87
2024/02/18 11:04:38;;;;;;;0.38;0.20;;;;;;;;;;5014792;28;20387;-87
2024/02/18 11:07:05;;;;;;;0.10;0.10;;;;;;;;;;5014525;28;20030;-87
2024/02/18 11:09:31;;;;;;;0.15;0.15;;;;;;;;;;5014315;28;20095;-87
2024/02/18 11:11:57;;;;;;;0.10;0.10;;;;;;;;;;5014004;28;20124;-87
2024/02/18 11:14:23;;;;;;;0.30;0.30;;;;;;;;;;5014126;28;20039;-86
2024/02/18 11:16:49;;;;;;;0.10;0.10;;;;;;;;;;5014707;28;20037;-86
2024/02/18 11:19:16;;;;;;;0.20;0.20;;;;;;;;;;5012656;28;20033;-86
2024/02/18 11:21:42;;;;;;;0.10;0.10;;;;;;;;;;5014131;28;20201;-84
2024/02/18 11:24:08;;;;;;;0.20;0.20;;;;;;;;;;5026326;28;20037;-86
2024/02/18 11:26:34;;;;;;;0.20;0.20;;;;;;;;;;5014109;28;20041;-86
2024/02/18 11:29:02;;;;;;;0.10;0.10;;;;;;;;;;5013875;28;20092;-86
2024/02/18 11:31:29;;;;;;;0.20;0.20;;;;;;;;;;5031372;28;20547;-86
2024/02/18 11:33:56;;;;;;;0.10;0.10;;;;;;;;;;5018513;28;20389;-86
2024/02/18 11:36:23;;;;;;;0.10;0.10;;;;;;;;;;5018287;28;20045;-86
2024/02/18 11:38:53;;;;;;;0.10;0.10;;;;;;;;;;5017739;28;20045;-85
2024/02/18 11:41:39;;;;;;;0.15;0.15;;;;;;;;;;5017602;28;20129;-84
2024/02/18 11:44:13;;;;;;;0.10;0.10;;;;;;;;;;5032932;28;20041;-84
2024/02/18 11:46:45;;;;;;;0.10;0.10;;;;;;;;;;5034171;28;20116;-85
2024/02/18 11:49:11;;;;;;;0.10;0.10;;;;;;;;;;5017772;28;20041;-85
2024/02/18 11:51:37;;;;;;;0.10;0.10;;;;;;;;;;5017582;28;20396;-85
2024/02/18 11:54:05;;;;;;;0.20;0.20;;;;;;;;;;5001429;28;20056;-85
2024/02/18 11:56:31;;;;;;;0.10;0.10;;;;;;;;;;5017183;28;20451;-84
2024/02/18 11:58:58;;;;;;;0.20;0.20;;;;;;;;;;5017438;28;20104;-84
2024/02/18 12:01:25;;;;;;;0.10;0.10;;;;;;;;;;5017253;28;20477;-84
2024/02/18 12:03:51;;;;;;;0.20;0.20;;;;;;;;;;5017386;28;20737;-85
2024/02/18 12:06:17;;;;;;;0.10;0.10;;;;;;;;;;5017304;28;20072;-85
2024/02/18 12:08:43;;;;;;;0.10;0.10;;;;;;;;;;5017349;28;20138;-84
2024/02/18 12:11:09;;;;;;;0.25;0.25;;;;;;;;;;5016943;28;20037;-84
2024/02/18 12:13:36;;;;;;;0.43;0.20;;;;;;;;;;5017432;28;20037;-84
2024/02/18 12:16:02;;;;;;;0.20;0.20;;;;;;;;;;5016663;28;20056;-85
2024/02/18 12:18:28;;;;;;;0.10;0.10;;;;;;;;;;5016637;28;20497;-85
2024/02/18 12:20:55;;;;;;;0.10;0.10;;;;;;;;;;5016619;28;20124;-85
2024/02/18 12:23:21;;;;;;;0.10;0.10;;;;;;;;;;5016766;28;20033;-84
2024/02/18 12:25:48;;;;;;;0.20;0.20;;;;;;;;;;5017148;28;20087;-85
2024/02/18 12:28:14;;;;;;;0.10;0.10;;;;;;;;;;5016703;28;20038;-84
2024/02/18 12:30:40;;;;;;;0.10;0.10;;;;;;;;;;5016715;28;20041;-84
2024/02/18 12:33:07;;;;;;;0.17;0.17;;;;;;;;;;5017021;28;20397;-87
2024/02/18 12:35:33;;;;;;;0.10;0.10;;;;;;;;;;5016863;28;20041;-87
2024/02/18 12:38:00;;;;;;;0.10;0.10;;;;;;;;;;5001047;28;20052;-87
2024/02/18 12:40:27;;;;;;;0.10;0.10;;;;;;;;;;5016729;28;20053;-87
2024/02/18 12:42:54;;;;;;;0.10;0.10;;;;;;;;;;5016803;28;20038;-87
2024/02/18 12:45:20;;;;;;;0.10;0.10;;;;;;;;;;5016896;28;20038;-87
2024/02/18 12:47:46;;;;;;;0.10;0.10;;;;;;;;;;5016959;28;20040;-87
2024/02/18 12:50:12;;;;;;;0.20;0.20;;;;;;;;;;5015795;28;20046;-88
2024/02/18 12:52:39;;;;;;;0.10;0.10;;;;;;;;;;5000399;28;20045;-88
2024/02/18 12:55:05;;;;;;;0.10;0.10;;;;;;;;;;5000200;28;20053;-87
2024/02/18 12:57:32;;;;;;;0.20;0.20;;;;;;;;;;5000140;28;20224;-88
2024/02/18 12:59:58;;;;;;;0.20;0.20;;;;;;;;;;5000488;28;20081;-88
2024/02/18 13:02:24;;;;;;;0.10;0.10;;;;;;;;;;5000090;28;20045;-88
2024/02/18 13:04:57;;;;;;;0.10;0.10;;;;;;;;;;5000609;28;20041;-88
2024/02/18 13:07:24;;;;;;;0.10;0.10;;;;;;;;;;5003191;28;20124;-88
2024/02/18 13:09:50;;;;;;;0.10;0.10;;;;;;;;;;5000366;28;20112;-86
2024/02/18 13:12:17;;;;;;;0.10;0.10;;;;;;;;;;4999975;28;20049;-86
2024/02/18 13:14:43;;;;;;;0.10;0.10;;;;;;;;;;5016336;28;20041;-87
2024/02/18 13:17:09;;;;;;;0.10;0.10;;;;;;;;;;4999962;28;20037;-87
2024/02/18 13:19:43;;;;;;;0.20;0.20;;;;;;;;;;4999790;28;20073;-87
2024/02/18 13:22:09;;;;;;;0.10;0.10;;;;;;;;;;5016381;28;20033;-91
2024/02/18 13:24:36;;;;;;;0.10;0.10;;;;;;;;;;5000171;28;20493;-89
2024/02/18 13:27:02;;;;;;;0.10;0.10;;;;;;;;;;4999915;28;20132;-89
2024/02/18 13:29:28;;;;;;;0.20;0.20;;;;;;;;;;4999327;28;20041;-88
2024/02/18 13:31:55;;;;;;;0.20;0.20;;;;;;;;;;4999458;28;20052;-88
2024/02/18 13:34:21;;;;;;;0.10;0.10;;;;;;;;;;4999749;28;20076;-87
2024/02/18 13:36:49;;;;;;;0.10;0.10;;;;;;;;;;4999568;28;20128;-87
2024/02/18 13:39:16;;;;;;;0.20;0.20;;;;;;;;;;4998784;28;20084;-87
2024/02/18 13:41:42;;;;;;;0.10;0.10;;;;;;;;;;4998683;28;20045;-87
2024/02/18 13:44:09;;;;;;;0.20;0.20;;;;;;;;;;4998965;28;20068;-87
2024/02/18 13:46:35;;;;;;;0.10;0.10;;;;;;;;;;4999226;28;20044;-86
2024/02/18 13:49:01;;;;;;;0.10;0.10;;;;;;;;;;4999473;28;20087;-89
2024/02/18 13:51:27;;;;;;;0.10;0.10;;;;;;;;;;4999474;28;20115;-89
2024/02/18 13:53:54;;;;;;;0.32;0.32;;;;;;;;;;4998947;28;20076;-89
2024/02/18 13:56:20;;;;;;;0.10;0.10;;;;;;;;;;4996318;28;20049;-87
2024/02/18 13:58:46;;;;;;;0.10;0.10;;;;;;;;;;5012053;28;20128;-86
2024/02/18 14:01:12;;;;;;;0.17;0.17;;;;;;;;;;4995495;28;20072;-85
2024/02/18 14:03:38;;;;;;;0.10;0.10;;;;;;;;;;4995632;28;20037;-85
2024/02/18 14:06:04;;;;;;;0.10;0.10;;;;;;;;;;4995531;28;20045;-86
2024/02/18 14:08:31;;;;;;;0.10;0.10;;;;;;;;;;4995830;28;20037;-86
2024/02/18 14:10:57;;;;;;;0.10;0.10;;;;;;;;;;5012003;28;20045;-86
2024/02/18 14:13:24;;;;;;;0.10;0.10;;;;;;;;;;4995758;28;20072;-85
2024/02/18 14:15:53;;;;;;;0.20;0.20;;;;;;;;;;4995566;28;20045;-84
2024/02/18 14:18:20;;;;;;;0.10;0.10;;;;;;;;;;5028227;28;20029;-85
2024/02/18 14:20:47;;;;;;;0.10;0.10;;;;;;;;;;4995026;28;20505;-86
2024/02/18 14:23:13;;;;;;;0.10;0.10;;;;;;;;;;5011512;28;20042;-86
2024/02/18 14:25:39;;;;;;;0.10;0.10;;;;;;;;;;5011926;28;20034;-86
2024/02/18 14:28:08;;;;;;;0.20;0.20;;;;;;;;;;4995183;28;20474;-86
2024/02/18 14:30:38;;;;;;;0.10;0.10;;;;;;;;;;4995771;28;20049;-86
2024/02/18 14:33:04;;;;;;;0.43;0.22;;;;;;;;;;4995156;28;20046;-87
2024/02/18 14:35:30;;;;;;;0.10;0.10;;;;;;;;;;4995323;28;20038;-87
2024/02/18 14:37:57;;;;;;;0.10;0.10;;;;;;;;;;5011159;28;20038;-86
2024/02/18 14:40:23;;;;;;;0.20;0.20;;;;;;;;;;5011246;28;20053;-87